Time;durP1;ratioP1;P1;durP2;ratioP2;P2;SDS_P1;SDS_P2;PMS_P1;PMS_P2;Temp;Humidity;BMP_temperature;BMP_pressure;BME280_temperature;BME280_humidity;BME280_pressure;Samples;Min_cycle;Max_cycle;Signal;HPM_P1;HPM_P2
2023/09/03 00:01:39;;;;;;;24.20;8.70;;;;;;;23.23;52.65;99472.25;67844;1278;1016278;-64
2023/09/03 00:04:41;;;;;;;;;;;;;;;23.22;52.44;99473.78;67853;1278;1016504;-64
2023/09/03 00:07:44;;;;;;;25.50;9.10;;;;;;;23.18;52.33;99475.96;67818;1278;1016421;-64
2023/09/03 00:10:46;;;;;;;21.10;7.60;;;;;;;23.12;52.42;99478.72;67783;1278;1016418;-64
2023/09/03 00:13:49;;;;;;;21.80;7.50;;;;;;;23.13;52.03;99484.30;67803;1278;1016330;-64
2023/09/03 00:16:51;;;;;;;;;;;;;;;23.09;51.98;99481.91;67834;1278;1017129;-64
2023/09/03 00:19:53;;;;;;;23.90;7.90;;;;;;;23.08;52.16;99478.76;67856;1278;1016433;-64
2023/09/03 00:22:56;;;;;;;24.20;7.60;;;;;;;23.25;51.91;99474.23;67833;1278;1017259;-64
2023/09/03 00:25:58;;;;;;;25.40;8.30;;;;;;;23.22;52.13;99472.16;67808;1278;1016482;-64
2023/09/03 00:29:00;;;;;;;22.60;8.40;;;;;;;23.22;52.43;99476.16;67807;1278;1016284;-64
2023/09/03 00:32:03;;;;;;;24.80;10.30;;;;;;;23.27;52.44;99466.88;67787;1278;1016402;-64
2023/09/03 00:35:05;;;;;;;22.10;8.10;;;;;;;23.27;52.46;99463.27;67850;1278;1016465;-64
2023/09/03 00:38:08;;;;;;;23.30;7.40;;;;;;;23.24;52.66;99459.48;67819;1278;1016385;-64
2023/09/03 00:41:10;;;;;;;22.40;6.50;;;;;;;23.12;52.63;99458.60;67798;1278;1016451;-64
2023/09/03 00:44:14;;;;;;;;;;;;;;;23.10;52.52;99456.42;67766;1278;1016817;-63
2023/09/03 00:47:16;;;;;;;20.90;7.40;;;;;;;23.15;52.34;99450.42;67818;1278;1016461;-63
2023/09/03 00:50:18;;;;;;;;;;;;;;;23.16;52.57;99450.50;67805;1278;1016258;-63
2023/09/03 00:53:21;;;;;;;22.80;8.70;;;;;;;23.29;52.58;99452.03;67833;1278;1016975;-64
2023/09/03 00:56:23;;;;;;;25.60;8.90;;;;;;;23.41;52.37;99448.46;67802;1278;1018857;-64
2023/09/03 00:59:26;;;;;;;25.40;8.90;;;;;;;23.55;52.35;99448.20;67835;1278;1016421;-64
2023/09/03 01:02:28;;;;;;;25.40;9.10;;;;;;;23.62;52.34;99447.48;67798;1278;1016455;-64
2023/09/03 01:05:30;;;;;;;21.70;7.70;;;;;;;23.65;52.25;99445.38;67826;1278;1016468;-64
2023/09/03 01:08:33;;;;;;;24.60;8.40;;;;;;;23.60;52.25;99443.02;67809;1278;1016361;-65
2023/09/03 01:11:35;;;;;;;20.60;7.50;;;;;;;23.54;52.34;99445.84;67795;1278;1016381;-64
2023/09/03 01:14:37;;;;;;;;;;;;;;;23.54;52.37;99443.87;67793;1278;1016461;-64
2023/09/03 01:17:41;;;;;;;19.80;7.70;;;;;;;23.50;52.37;99452.91;67826;1278;1016225;-64
2023/09/03 01:20:44;;;;;;;21.60;7.30;;;;;;;23.36;52.63;99450.89;67780;1277;1016010;-64
2023/09/03 01:23:46;;;;;;;20.80;7.10;;;;;;;23.22;53.00;99447.77;67849;1278;1016316;-64
2023/09/03 01:26:49;;;;;;;21.00;7.10;;;;;;;23.30;52.70;99446.39;67842;1278;1016486;-64
2023/09/03 01:29:51;;;;;;;;;;;;;;;23.34;52.61;99446.54;67788;1278;1016242;-64
2023/09/03 01:32:53;;;;;;;20.30;6.50;;;;;;;23.32;52.50;99445.62;67807;1278;1016871;-64
2023/09/03 01:35:57;;;;;;;19.50;6.60;;;;;;;23.22;52.72;99447.20;67860;1278;1016396;-64
2023/09/03 01:39:01;;;;;;;21.90;7.60;;;;;;;23.24;52.63;99444.48;67807;1278;1017197;-64
2023/09/03 01:42:04;;;;;;;22.20;6.60;;;;;;;23.26;52.76;99447.31;67859;1278;1017197;-64
2023/09/03 01:45:06;;;;;;;20.00;6.70;;;;;;;23.38;52.37;99445.23;67799;1278;1016436;-64
2023/09/03 01:48:09;;;;;;;;;;;;;;;23.34;52.45;99445.36;67778;1278;1016267;-64
2023/09/03 01:51:11;;;;;;;20.60;6.50;;;;;;;23.35;52.54;99444.61;67801;1278;1016350;-64
2023/09/03 01:54:14;;;;;;;20.00;6.10;;;;;;;23.41;52.34;99440.27;67819;1278;1016104;-64
2023/09/03 01:57:16;;;;;;;;;;;;;;;23.23;52.48;99438.33;67846;1278;1017717;-64
2023/09/03 02:00:18;;;;;;;19.50;6.10;;;;;;;23.12;52.68;99438.45;67820;1278;1015963;-64
2023/09/03 02:03:21;;;;;;;19.30;6.60;;;;;;;22.99;52.93;99440.81;67797;1278;1016268;-65
2023/09/03 02:06:23;;;;;;;18.50;6.10;;;;;;;23.05;52.95;99440.25;67792;1278;1016465;-64
2023/09/03 02:09:26;;;;;;;18.20;6.40;;;;;;;23.17;52.89;99435.99;67833;1278;1016379;-64
2023/09/03 02:12:28;;;;;;;19.80;6.50;;;;;;;23.25;52.47;99426.00;67861;1278;1016329;-64
2023/09/03 02:15:30;;;;;;;21.70;6.80;;;;;;;23.27;52.48;99424.07;67832;1278;1016440;-65
2023/09/03 02:18:33;;;;;;;21.80;6.80;;;;;;;23.20;52.77;99428.02;67844;1278;1016803;-64
2023/09/03 02:21:35;;;;;;;18.40;6.20;;;;;;;23.25;52.76;99429.61;67796;1278;1016234;-64
2023/09/03 02:24:37;;;;;;;;;;;;;;;23.28;52.80;99430.59;67805;1278;1016446;-64
2023/09/03 02:27:40;;;;;;;22.10;6.60;;;;;;;23.27;52.67;99430.80;67809;1278;1019942;-64
2023/09/03 02:30:42;;;;;;;19.90;6.60;;;;;;;23.30;52.59;99434.95;67862;1278;1016221;-64
2023/09/03 02:33:45;;;;;;;;;;;;;;;23.14;53.29;99458.20;67824;1278;1016706;-64
2023/09/03 02:36:47;;;;;;;20.60;7.70;;;;;;;22.45;55.81;99498.09;67796;1278;1016260;-64
2023/09/03 02:39:49;;;;;;;20.40;7.70;;;;;;;22.01;58.58;99491.59;67795;1278;1016817;-64
2023/09/03 02:42:55;;;;;;;22.40;7.20;;;;;;;22.14;57.27;99510.77;67793;1277;1016380;-64
2023/09/03 02:46:00;;;;;;;23.30;7.30;;;;;;;21.87;56.93;99518.56;67857;1277;1016485;-64
2023/09/03 02:49:06;;;;;;;27.60;7.70;;;;;;;21.47;60.49;99531.13;67843;1278;1016351;-64
2023/09/03 02:52:11;;;;;;;20.30;6.30;;;;;;;21.38;59.33;99511.20;67802;1278;1017637;-64
2023/09/03 02:55:14;;;;;;;20.30;6.10;;;;;;;21.32;58.08;99474.81;67792;1278;1004543;-64
2023/09/03 02:58:16;;;;;;;21.30;6.70;;;;;;;21.23;58.22;99475.17;67793;1278;1005755;-63
2023/09/03 03:01:18;;;;;;;20.60;5.90;;;;;;;21.24;58.46;99472.14;67812;1278;1016258;-63
2023/09/03 03:04:21;;;;;;;21.40;5.60;;;;;;;21.16;58.24;99462.16;67829;1278;1016551;-63
2023/09/03 03:07:25;;;;;;;20.10;5.90;;;;;;;21.41;58.44;99445.89;67795;1278;1016745;-63
2023/09/03 03:10:27;;;;;;;22.30;6.30;;;;;;;21.71;57.98;99435.60;67821;1278;1019147;-63
2023/09/03 03:13:30;;;;;;;;;;;;;;;21.92;57.86;99435.16;67848;1278;1016568;-63
2023/09/03 03:16:32;;;;;;;23.60;7.20;;;;;;;22.11;57.63;99426.14;67815;1278;1018918;-63
2023/09/03 03:19:34;;;;;;;20.00;6.50;;;;;;;22.28;57.01;99419.69;67773;1278;1016176;-63
2023/09/03 03:22:37;;;;;;;20.00;6.40;;;;;;;22.32;56.93;99415.13;67839;1278;1016592;-63
2023/09/03 03:25:39;;;;;;;21.40;6.00;;;;;;;22.54;57.01;99414.93;67825;1278;1018095;-63
2023/09/03 03:28:42;;;;;;;18.00;5.90;;;;;;;22.74;56.58;99414.46;67832;1278;1016452;-63
2023/09/03 03:31:44;;;;;;;21.90;6.40;;;;;;;22.80;56.19;99413.70;67807;1278;1016431;-64
2023/09/03 03:34:46;;;;;;;21.70;6.60;;;;;;;22.78;55.82;99420.65;67786;1278;1018480;-63
2023/09/03 03:37:49;;;;;;;19.40;6.10;;;;;;;22.50;55.86;99438.30;67861;1278;1016456;-64
2023/09/03 03:40:51;;;;;;;20.60;6.40;;;;;;;22.24;56.53;99462.58;67836;1278;1016545;-64
2023/09/03 03:43:53;;;;;;;23.30;6.60;;;;;;;21.68;58.49;99476.48;67827;1278;1016492;-64
2023/09/03 03:46:56;;;;;;;18.50;6.30;;;;;;;21.47;58.12;99474.20;67792;1278;1016097;-64
2023/09/03 03:49:58;;;;;;;18.10;5.50;;;;;;;21.66;57.55;99466.66;67803;1278;1020118;-64
2023/09/03 03:53:01;;;;;;;21.60;6.20;;;;;;;21.88;57.08;99469.17;67829;1278;1016724;-64
2023/09/03 03:56:03;;;;;;;16.20;6.20;;;;;;;22.13;56.87;99461.44;67829;1278;1017154;-63
2023/09/03 03:59:06;;;;;;;22.00;6.30;;;;;;;22.27;56.54;99464.11;67789;1278;1016399;-64
2023/09/03 04:02:08;;;;;;;20.10;5.80;;;;;;;22.38;56.87;99461.81;67798;1278;1016549;-64
2023/09/03 04:05:10;;;;;;;19.90;6.00;;;;;;;22.49;56.21;99454.63;67778;1277;1016296;-63
2023/09/03 04:08:13;;;;;;;18.70;5.60;;;;;;;22.44;56.27;99460.64;67811;1278;1018205;-64
2023/09/03 04:11:15;;;;;;;20.30;7.00;;;;;;;22.47;56.74;99454.63;67806;1278;1016020;-63
2023/09/03 04:14:17;;;;;;;30.20;12.00;;;;;;;22.52;56.83;99447.06;67840;1278;1016308;-63
2023/09/03 04:17:20;;;;;;;28.30;10.60;;;;;;;22.64;57.19;99449.55;67810;1277;1016688;-63
2023/09/03 04:20:22;;;;;;;26.30;8.40;;;;;;;22.83;56.80;99451.36;67862;1278;1016502;-63
2023/09/03 04:23:24;;;;;;;20.00;7.00;;;;;;;22.93;56.16;99454.30;67798;1278;1016082;-63
2023/09/03 04:26:27;;;;;;;22.20;6.40;;;;;;;22.87;56.03;99458.30;67823;1278;1018894;-63
2023/09/03 04:29:29;;;;;;;19.50;5.90;;;;;;;22.71;56.00;99457.27;67795;1278;1016294;-64
2023/09/03 04:32:32;;;;;;;18.70;5.80;;;;;;;22.57;56.15;99450.14;67813;1278;1016369;-63
2023/09/03 04:35:35;;;;;;;;;;;;;;;22.67;56.31;99447.42;67797;1277;1016516;-63
2023/09/03 04:38:38;;;;;;;18.20;6.20;;;;;;;22.73;56.45;99460.41;67769;1278;1016463;-63
2023/09/03 04:41:40;;;;;;;18.00;5.80;;;;;;;22.66;56.30;99456.86;67817;1278;1016275;-63
2023/09/03 04:44:42;;;;;;;20.40;6.90;;;;;;;22.71;56.21;99447.09;67793;1278;1016526;-63
2023/09/03 04:47:45;;;;;;;21.10;6.50;;;;;;;22.75;56.29;99448.81;67825;1278;1016040;-64
2023/09/03 04:50:47;;;;;;;23.20;7.00;;;;;;;22.75;56.00;99442.77;67811;1277;1016346;-63
2023/09/03 04:53:49;;;;;;;19.00;6.20;;;;;;;22.75;56.26;99443.23;67825;1277;1016235;-64
2023/09/03 04:56:52;;;;;;;;;;;;;;;22.77;56.73;99440.59;67862;1278;1016417;-63
2023/09/03 04:59:54;;;;;;;18.70;6.60;;;;;;;23.00;56.25;99442.49;67853;1278;1016699;-64
2023/09/03 05:02:57;;;;;;;18.00;5.70;;;;;;;23.13;56.06;99440.86;67830;1278;1016152;-63
2023/09/03 05:05:59;;;;;;;21.00;6.50;;;;;;;23.26;55.81;99431.31;67814;1278;1016469;-64
2023/09/03 05:09:01;;;;;;;21.10;6.60;;;;;;;23.36;55.85;99434.33;67769;1278;1016437;-63
2023/09/03 05:12:04;;;;;;;;;;;;;;;23.50;55.68;99439.98;67853;1278;1016488;-63
2023/09/03 05:15:06;;;;;;;19.50;7.30;;;;;;;23.61;55.32;99445.66;67853;1278;1016884;-64
2023/09/03 05:18:08;;;;;;;21.70;6.90;;;;;;;23.71;55.16;99447.77;67836;1278;1016267;-63
2023/09/03 05:21:11;;;;;;;20.80;6.30;;;;;;;23.54;54.96;99455.58;67798;1254;1016215;-64
2023/09/03 05:24:13;;;;;;;19.20;6.60;;;;;;;23.30;55.17;99461.71;67805;1278;1016435;-64
2023/09/03 05:27:15;;;;;;;20.10;5.80;;;;;;;23.15;55.25;99463.51;67812;1278;1016248;-63
2023/09/03 05:30:18;;;;;;;17.40;6.40;;;;;;;23.02;55.26;99460.86;67819;1278;1016413;-63
2023/09/03 05:33:20;;;;;;;17.90;5.80;;;;;;;23.08;55.22;99461.77;67837;1278;1016233;-63
2023/09/03 05:36:23;;;;;;;18.00;6.20;;;;;;;23.06;55.12;99463.85;67804;1278;1016493;-64
2023/09/03 05:39:26;;;;;;;18.50;6.80;;;;;;;23.11;55.09;99462.96;67820;1278;1016293;-64
2023/09/03 05:42:28;;;;;;;19.30;6.30;;;;;;;23.24;55.06;99464.15;67847;1278;1016358;-64
2023/09/03 05:45:31;;;;;;;;;;;;;;;23.37;55.16;99459.73;67804;1278;1016252;-64
2023/09/03 05:48:33;;;;;;;17.80;6.40;;;;;;;23.54;54.93;99460.44;67799;1278;1016510;-64
2023/09/03 05:51:36;;;;;;;17.80;6.30;;;;;;;23.74;54.80;99457.27;67799;1278;1016261;-64
2023/09/03 05:54:39;;;;;;;;;;;;;;;23.85;54.59;99453.64;67856;1278;1016397;-64
2023/09/03 05:57:41;;;;;;;19.10;6.30;;;;;;;23.94;54.76;99450.59;67815;1278;1016124;-64
2023/09/03 06:00:43;;;;;;;;;;;;;;;24.37;54.66;99448.39;67794;1278;1016481;-64
2023/09/03 06:03:46;;;;;;;19.00;5.60;;;;;;;24.70;53.72;99449.30;67814;1278;1015992;-64
2023/09/03 06:06:48;;;;;;;;;;;;;;;24.89;53.51;99447.38;67699;1278;1016482;-64
2023/09/03 06:09:50;;;;;;;18.40;5.70;;;;;;;25.09;53.08;99446.84;67862;1278;1016746;-64
2023/09/03 06:12:53;;;;;;;;;;;;;;;25.26;52.92;99449.55;67837;1278;1016282;-64
2023/09/03 06:15:55;;;;;;;18.20;5.50;;;;;;;25.34;52.72;99451.35;67833;1278;1016343;-64
2023/09/03 06:18:57;;;;;;;;;;;;;;;25.56;52.11;99457.69;67802;1278;1016482;-64
2023/09/03 06:22:00;;;;;;;15.70;4.80;;;;;;;25.83;52.33;99462.69;67810;1278;1016430;-64
2023/09/03 06:25:02;;;;;;;;;;;;;;;25.91;52.00;99466.52;67863;1278;1017207;-64
2023/09/03 06:28:05;;;;;;;15.40;5.10;;;;;;;25.71;51.32;99472.29;67838;1278;1016168;-64
2023/09/03 06:31:07;;;;;;;;;;;;;;;25.52;51.92;99475.87;67828;1278;1016497;-64
2023/09/03 06:34:09;;;;;;;17.80;5.40;;;;;;;25.58;51.80;99479.06;67807;1278;1016391;-64
2023/09/03 06:37:12;;;;;;;;;;;;;;;25.40;51.82;99481.09;67798;1278;1016160;-64
2023/09/03 06:40:15;;;;;;;16.50;5.30;;;;;;;25.45;52.01;99479.81;67827;1278;1019399;-64
2023/09/03 06:43:17;;;;;;;;;;;;;;;25.72;52.03;99480.77;67821;1278;1016356;-64
2023/09/03 06:46:20;;;;;;;17.30;4.90;;;;;;;25.88;51.31;99481.52;67783;1278;1016376;-63
2023/09/03 06:49:22;;;;;;;18.40;5.40;;;;;;;26.07;51.56;99491.11;67822;1278;1016244;-64
2023/09/03 06:52:25;;;;;;;15.40;5.30;;;;;;;26.19;51.33;99495.27;67857;1278;1016517;-65
2023/09/03 06:55:27;;;;;;;;;;;;;;;26.07;51.04;99500.60;67827;1278;1016309;-64
2023/09/03 06:58:29;;;;;;;13.40;4.50;;;;;;;26.05;51.36;99495.73;67813;1278;1016256;-64
2023/09/03 07:01:32;;;;;;;;;;;;;;;25.83;50.89;99496.67;67810;1278;1016214;-64
2023/09/03 07:04:34;;;;;;;16.80;5.30;;;;;;;25.77;51.61;99496.67;67824;1278;1016424;-64
2023/09/03 07:07:37;;;;;;;;;;;;;;;25.94;51.86;99493.96;67832;1278;1017367;-63
2023/09/03 07:10:39;;;;;;;13.90;4.50;;;;;;;26.40;51.57;99497.77;67830;1278;1016274;-62
2023/09/03 07:13:41;;;;;;;;;;;;;;;27.05;50.89;99494.83;67806;1278;1016333;-65
2023/09/03 07:16:44;;;;;;;17.40;4.80;;;;;;;27.38;48.49;99499.04;67804;1278;1016370;-63
2023/09/03 07:19:46;;;;;;;;;;;;;;;27.43;48.75;99498.95;67818;1278;1016278;-64
2023/09/03 07:22:48;;;;;;;15.90;4.60;;;;;;;27.44;48.27;99500.59;67809;1278;1018658;-64
2023/09/03 07:25:51;;;;;;;;;;;;;;;27.47;47.28;99503.73;67825;1278;1018731;-64
2023/09/03 07:28:53;;;;;;;16.50;5.10;;;;;;;27.43;46.98;99506.70;67849;1278;1016231;-64
2023/09/03 07:31:55;;;;;;;;;;;;;;;27.07;47.67;99507.27;67832;1278;1016213;-64
2023/09/03 07:34:58;;;;;;;15.50;4.90;;;;;;;27.05;48.12;99507.41;67798;1278;1016462;-63
2023/09/03 07:38:00;;;;;;;16.60;4.90;;;;;;;27.20;48.33;99509.98;67828;1278;1016512;-63
2023/09/03 07:41:03;;;;;;;15.30;5.10;;;;;;;27.35;48.22;99516.48;67845;1278;1016460;-62
2023/09/03 07:44:05;;;;;;;17.00;4.90;;;;;;;27.37;48.50;99521.77;67861;1278;1016523;-62
2023/09/03 07:47:07;;;;;;;16.20;5.40;;;;;;;27.49;48.20;99525.34;67836;1278;1016368;-63
2023/09/03 07:50:10;;;;;;;20.30;5.50;;;;;;;27.56;48.24;99530.41;67796;1278;1016409;-62
2023/09/03 07:53:12;;;;;;;16.90;5.90;;;;;;;27.40;47.87;99537.40;67805;1278;1016411;-62
2023/09/03 07:56:14;;;;;;;18.90;5.40;;;;;;;27.36;48.12;99539.09;67798;1277;1016461;-62
2023/09/03 07:59:17;;;;;;;16.30;5.20;;;;;;;27.42;48.22;99538.96;67831;1278;1016089;-62
2023/09/03 08:02:19;;;;;;;16.10;5.50;;;;;;;27.50;47.62;99547.64;67851;1278;1016459;-63
2023/09/03 08:05:21;;;;;;;18.20;6.50;;;;;;;27.35;47.48;99550.91;67845;1278;1017643;-62
2023/09/03 08:08:24;;;;;;;19.40;5.60;;;;;;;27.56;47.91;99556.34;67734;1278;1016401;-62
2023/09/03 08:11:26;;;;;;;17.00;5.90;;;;;;;27.82;47.26;99564.07;67737;1278;1016407;-63
2023/09/03 08:14:29;;;;;;;18.10;5.50;;;;;;;27.86;47.02;99565.00;67831;1278;1016165;-63
2023/09/03 08:17:32;;;;;;;17.30;5.60;;;;;;;28.00;46.78;99568.95;67843;1278;1016672;-62
2023/09/03 08:20:34;;;;;;;17.10;5.60;;;;;;;28.05;46.36;99570.31;67796;1278;1016174;-63
2023/09/03 08:23:38;;;;;;;15.90;5.20;;;;;;;28.32;46.68;99562.69;67777;1278;1016388;-62
2023/09/03 08:26:41;;;;;;;20.00;6.20;;;;;;;28.40;45.83;99561.45;67838;1278;1018149;-63
2023/09/03 08:29:43;;;;;;;19.90;6.40;;;;;;;28.39;45.73;99561.67;67836;1278;1016402;-62
2023/09/03 08:32:45;;;;;;;18.80;6.10;;;;;;;28.30;45.28;99565.98;67824;1278;1016182;-62
2023/09/03 08:35:48;;;;;;;20.00;6.40;;;;;;;28.39;45.52;99563.02;67832;1278;1016497;-62
2023/09/03 08:38:50;;;;;;;15.50;5.40;;;;;;;28.51;45.63;99563.91;67830;1278;1016481;-62
2023/09/03 08:41:52;;;;;;;19.20;5.80;;;;;;;28.46;45.52;99562.59;67797;1277;1016065;-63
2023/09/03 08:44:55;;;;;;;19.50;5.60;;;;;;;28.27;45.37;99560.19;67858;1278;1017233;-62
2023/09/03 08:47:57;;;;;;;17.10;5.70;;;;;;;28.24;45.64;99552.12;67851;1278;1016902;-62
2023/09/03 08:50:59;;;;;;;17.60;6.00;;;;;;;28.48;44.95;99557.05;67877;1278;1016211;-63
2023/09/03 08:54:02;;;;;;;18.70;5.90;;;;;;;28.45;44.77;99560.17;67836;1278;1016344;-62
2023/09/03 08:57:05;;;;;;;19.20;6.00;;;;;;;28.62;44.96;99563.10;67805;1278;1016446;-63
2023/09/03 09:00:08;;;;;;;17.20;5.80;;;;;;;28.52;44.56;99560.79;67822;1278;1016000;-63
2023/09/03 09:03:11;;;;;;;17.00;5.80;;;;;;;28.48;44.64;99565.75;67829;1278;1016935;-62
2023/09/03 09:06:14;;;;;;;15.10;5.10;;;;;;;28.41;44.72;99564.74;67867;1278;1016410;-63
2023/09/03 09:09:16;;;;;;;17.60;5.90;;;;;;;28.62;44.29;99560.76;67862;1278;1016042;-63
2023/09/03 09:12:18;;;;;;;16.40;5.60;;;;;;;28.89;43.97;99558.11;67809;1278;1016494;-63
2023/09/03 09:15:21;;;;;;;22.30;6.20;;;;;;;29.04;44.09;99549.51;67822;1278;1016463;-62
2023/09/03 09:18:23;;;;;;;20.30;5.70;;;;;;;29.26;43.81;99550.05;67864;1277;1016484;-62
2023/09/03 09:21:25;;;;;;;17.20;5.20;;;;;;;29.42;43.17;99546.05;67868;1277;1016491;-62
2023/09/03 09:24:28;;;;;;;17.80;5.70;;;;;;;29.76;43.49;99542.98;67902;1277;1016495;-62
2023/09/03 09:27:30;;;;;;;15.70;5.20;;;;;;;30.09;43.00;99541.70;67823;1277;1016454;-63
2023/09/03 09:30:33;;;;;;;16.40;5.20;;;;;;;30.27;42.13;99537.18;67799;1275;1016133;-63
2023/09/03 09:33:35;;;;;;;16.70;5.00;;;;;;;30.40;41.76;99536.01;67796;1277;1016830;-62
2023/09/03 09:36:37;;;;;;;16.40;4.60;;;;;;;30.61;42.12;99540.67;67831;1277;1016216;-63
2023/09/03 09:39:40;;;;;;;15.10;4.40;;;;;;;30.11;40.13;99547.36;67858;1277;1016534;-62
2023/09/03 09:42:42;;;;;;;13.20;4.00;;;;;;;29.72;40.36;99546.23;67890;1277;1016166;-63
2023/09/03 09:45:45;;;;;;;13.30;3.80;;;;;;;29.93;40.32;99540.61;67862;1254;1016377;-62
2023/09/03 09:48:47;;;;;;;12.40;4.00;;;;;;;30.10;40.64;99532.46;67835;1277;1016429;-62
2023/09/03 09:51:49;;;;;;;12.30;3.90;;;;;;;30.20;39.85;99532.54;67818;1277;1018805;-63
2023/09/03 09:54:52;;;;;;;15.00;4.00;;;;;;;30.38;40.08;99527.67;67847;1277;1018932;-63
2023/09/03 09:57:54;;;;;;;12.50;3.60;;;;;;;30.76;40.01;99529.13;67882;1277;1016235;-63
2023/09/03 10:00:56;;;;;;;13.60;3.70;;;;;;;30.94;39.56;99529.73;67852;1277;1016691;-62
2023/09/03 10:03:59;;;;;;;11.30;3.80;;;;;;;30.97;39.24;99536.18;67811;1277;1016145;-63
2023/09/03 10:07:01;;;;;;;11.00;3.80;;;;;;;30.76;38.52;99536.55;67835;1277;1017600;-63
2023/09/03 10:10:05;;;;;;;13.50;4.00;;;;;;;30.52;39.02;99530.71;67818;1277;1016490;-63
2023/09/03 10:13:08;;;;;;;13.40;3.60;;;;;;;30.69;39.15;99526.93;67810;1277;1016237;-63
2023/09/03 10:16:10;;;;;;;11.10;3.60;;;;;;;31.23;38.11;99523.50;67864;1277;1016604;-63
2023/09/03 10:19:12;;;;;;;10.60;3.60;;;;;;;31.55;36.74;99526.35;67888;1277;1016432;-63
2023/09/03 10:22:15;;;;;;;16.60;3.80;;;;;;;31.27;37.69;99516.77;67878;1277;1016405;-62
2023/09/03 10:25:18;;;;;;;15.30;3.70;;;;;;;31.51;36.85;99513.27;67888;1277;1016676;-63
2023/09/03 10:28:22;;;;;;;13.80;3.60;;;;;;;31.93;36.48;99514.89;67891;1277;1016746;-63
2023/09/03 10:31:24;;;;;;;12.30;3.80;;;;;;;31.48;36.35;99521.30;67867;1277;1018713;-63
2023/09/03 10:34:27;;;;;;;10.40;3.90;;;;;;;30.73;37.47;99522.77;67862;1277;1016281;-62
2023/09/03 10:37:29;;;;;;;11.40;3.70;;;;;;;30.93;37.85;99521.01;67856;1277;1016484;-63
2023/09/03 10:40:33;;;;;;;12.30;3.40;;;;;;;30.83;38.18;99524.77;67817;1277;1016511;-63
2023/09/03 10:43:35;;;;;;;13.10;3.40;;;;;;;31.13;37.14;99527.01;67840;1277;1016010;-63
2023/09/03 10:46:37;;;;;;;13.00;3.30;;;;;;;31.42;35.22;99528.16;67836;1277;1018336;-63
2023/09/03 10:49:40;;;;;;;8.20;2.90;;;;;;;31.52;35.68;99522.58;67828;1277;1016189;-63
2023/09/03 10:52:42;;;;;;;9.90;3.00;;;;;;;31.72;35.18;99518.11;67846;1277;1016314;-63
2023/09/03 10:55:45;;;;;;;10.20;3.10;;;;;;;31.61;34.03;99515.90;67867;1277;1015923;-63
2023/09/03 10:58:47;;;;;;;10.00;3.40;;;;;;;31.84;34.77;99520.64;67877;1277;1016474;-63
2023/09/03 11:01:49;;;;;;;9.90;3.30;;;;;;;32.11;33.49;99524.07;67800;1277;1016684;-63
2023/09/03 11:04:52;;;;;;;11.40;3.50;;;;;;;32.26;33.28;99523.11;67826;1277;1019175;-63
2023/09/03 11:07:54;;;;;;;10.80;3.20;;;;;;;32.31;33.63;99525.85;67816;1277;1016883;-63
2023/09/03 11:10:56;;;;;;;10.00;3.30;;;;;;;31.90;33.42;99532.84;67840;1277;1016294;-63
2023/09/03 11:13:59;;;;;;;10.20;3.40;;;;;;;31.17;33.66;99529.61;67806;1277;1018023;-63
2023/09/03 11:17:01;;;;;;;10.10;3.60;;;;;;;30.77;34.41;99528.93;67858;1277;1016489;-63
2023/09/03 11:20:04;;;;;;;13.40;3.70;;;;;;;31.19;34.92;99529.63;67810;1277;1016150;-62
2023/09/03 11:23:06;;;;;;;14.30;3.70;;;;;;;31.59;35.06;99527.15;67799;1277;1016358;-63
2023/09/03 11:26:08;;;;;;;12.00;3.50;;;;;;;31.83;34.63;99531.45;67816;1277;1017221;-63
2023/09/03 11:29:11;;;;;;;11.70;3.60;;;;;;;31.83;32.84;99546.69;67859;1277;1016533;-62
2023/09/03 11:32:13;;;;;;;11.30;3.10;;;;;;;31.56;32.64;99533.67;67869;1277;1015894;-63
2023/09/03 11:35:16;;;;;;;13.10;3.10;;;;;;;31.63;32.96;99534.46;67860;1277;1016517;-63
2023/09/03 11:38:18;;;;;;;11.20;3.50;;;;;;;31.41;32.10;99537.91;67812;1277;1016337;-63
2023/09/03 11:41:20;;;;;;;12.90;3.30;;;;;;;31.46;32.33;99529.31;67832;1277;1016443;-63
2023/09/03 11:44:23;;;;;;;10.90;3.00;;;;;;;31.56;33.02;99531.64;67805;1277;1016924;-63
2023/09/03 11:47:25;;;;;;;8.70;3.10;;;;;;;31.90;32.12;99532.84;67896;1277;1016665;-63
2023/09/03 11:50:27;;;;;;;7.40;2.70;;;;;;;31.92;31.18;99532.38;67864;1277;1018731;-63
2023/09/03 11:53:30;;;;;;;8.60;2.90;;;;;;;31.44;31.05;99525.40;67828;1277;1016070;-63
2023/09/03 11:56:32;;;;;;;7.30;2.80;;;;;;;31.74;31.65;99519.27;67798;1277;1016312;-62
2023/09/03 11:59:34;;;;;;;9.90;3.00;;;;;;;32.17;32.24;99516.85;67847;1277;1015921;-63
2023/09/03 12:02:37;;;;;;;9.10;2.80;;;;;;;32.33;31.92;99520.98;67861;1277;1016955;-63
2023/09/03 12:05:39;;;;;;;9.60;3.10;;;;;;;31.66;31.34;99523.25;67847;1277;1016940;-63
2023/09/03 12:08:42;;;;;;;8.70;2.90;;;;;;;30.92;31.44;99519.75;67895;1277;1016415;-63
2023/09/03 12:11:44;;;;;;;9.80;3.00;;;;;;;30.74;32.37;99521.38;67819;1277;1016253;-64
2023/09/03 12:14:46;;;;;;;8.00;2.90;;;;;;;31.08;32.41;99517.39;67785;1277;1016170;-62
2023/09/03 12:17:49;;;;;;;11.80;3.00;;;;;;;31.51;31.04;99507.88;67832;1277;1016115;-62
2023/09/03 12:20:51;;;;;;;8.80;2.70;;;;;;;31.83;31.80;99495.63;67855;1277;1016853;-63
2023/09/03 12:23:53;;;;;;;9.40;3.30;;;;;;;32.23;30.84;99492.74;67879;1277;1016429;-63
2023/09/03 12:26:56;;;;;;;10.60;2.90;;;;;;;32.74;30.33;99490.92;67857;1277;1016531;-63
2023/09/03 12:29:58;;;;;;;8.90;2.90;;;;;;;32.90;30.38;99496.70;67828;1277;1016369;-62
2023/09/03 12:33:01;;;;;;;7.80;2.40;;;;;;;32.79;29.51;99496.20;67818;1277;1016494;-62
2023/09/03 12:36:03;;;;;;;8.80;2.80;;;;;;;32.13;30.26;99491.46;67843;1277;1018311;-63
2023/09/03 12:39:06;;;;;;;16.90;3.40;;;;;;;32.14;31.03;99486.36;67875;1277;1016457;-64
2023/09/03 12:42:08;;;;;;;7.50;2.50;;;;;;;32.02;31.21;99489.34;67804;1277;1016809;-63
2023/09/03 12:45:11;;;;;;;8.60;2.40;;;;;;;31.90;31.02;99493.16;67822;1277;1016305;-62
2023/09/03 12:48:13;;;;;;;6.30;2.50;;;;;;;31.96;30.43;99496.72;67868;1277;1016465;-63
2023/09/03 12:51:16;;;;;;;6.10;2.30;;;;;;;32.07;30.44;99494.11;67851;1277;1016528;-63
2023/09/03 12:54:18;;;;;;;6.00;2.30;;;;;;;31.95;28.58;99496.61;67792;1277;1018863;-63
2023/09/03 12:57:23;;;;;;;5.90;1.90;;;;;;;31.94;28.36;99490.52;67816;1277;1018906;-63
2023/09/03 13:00:25;;;;;;;7.80;2.40;;;;;;;31.39;28.00;99489.17;67859;1278;1016298;-63
2023/09/03 13:03:28;;;;;;;7.70;2.40;;;;;;;31.31;27.71;99492.17;67870;1277;1016490;-63
2023/09/03 13:06:30;;;;;;;6.90;2.30;;;;;;;31.22;27.95;99492.94;67838;1277;1016215;-62
2023/09/03 13:09:33;;;;;;;6.00;2.10;;;;;;;31.20;28.56;99490.94;67799;1277;1016445;-62
2023/09/03 13:12:35;;;;;;;6.70;2.70;;;;;;;31.17;29.21;99488.08;67857;1277;1016637;-62
2023/09/03 13:15:38;;;;;;;6.00;2.20;;;;;;;31.45;29.31;99480.91;67914;1277;1016457;-63
2023/09/03 13:18:40;;;;;;;9.00;2.40;;;;;;;31.72;29.55;99481.66;67854;1277;1016412;-62
2023/09/03 13:21:42;;;;;;;6.00;2.20;;;;;;;32.16;29.36;99479.42;67810;1277;1018704;-63
2023/09/03 13:24:47;;;;;;;7.90;2.60;;;;;;;32.39;28.32;99486.38;67817;1277;1016440;-63
2023/09/03 13:27:49;;;;;;;9.00;2.60;;;;;;;32.47;28.49;99481.04;67854;1277;1016358;-63
2023/09/03 13:30:52;;;;;;;6.10;2.60;;;;;;;32.25;28.52;99486.17;67866;1277;1016434;-63
2023/09/03 13:33:56;;;;;;;7.60;2.60;;;;;;;31.98;29.57;99482.11;67881;1277;1016337;-63
2023/09/03 13:36:58;;;;;;;8.10;2.50;;;;;;;32.39;28.97;99477.64;67816;1277;1016492;-63
2023/09/03 13:40:00;;;;;;;8.60;2.50;;;;;;;32.67;28.70;99486.33;67807;1277;1016457;-63
2023/09/03 13:43:03;;;;;;;8.20;2.50;;;;;;;32.50;28.63;99488.04;67823;1277;1016790;-63
2023/09/03 13:46:05;;;;;;;6.20;2.40;;;;;;;32.02;29.11;99489.52;67818;1277;1016440;-63
2023/09/03 13:49:09;;;;;;;7.80;2.50;;;;;;;31.54;29.45;99488.84;67871;1277;1016243;-64
2023/09/03 13:52:12;;;;;;;5.80;2.40;;;;;;;31.78;29.97;99485.92;67864;1277;1018919;-63
2023/09/03 13:55:14;;;;;;;11.00;2.80;;;;;;;32.16;29.47;99485.27;67869;1277;1018591;-63
2023/09/03 13:58:16;;;;;;;7.80;2.50;;;;;;;32.48;28.87;99487.23;67806;1254;1015918;-62
2023/09/03 14:01:19;;;;;;;8.20;2.30;;;;;;;32.44;27.82;99497.57;67796;1277;1016767;-63